sensor_id;sensor_type;location;lat;lon;timestamp;pressure;altitude;pressure_sealevel;temperature;humidity
7836;BME280;3963;42.658;23.298;2022-09-17T00:01:19;60261.00;;;16.41;100.00
7836;BME280;3963;42.658;23.298;2022-09-17T00:03:48;60236.84;;;16.38;100.00
7836;BME280;3963;42.658;23.298;2022-09-17T00:06:17;60259.41;;;16.39;100.00
7836;BME280;3963;42.658;23.298;2022-09-17T00:08:44;60242.28;;;16.28;100.00
7836;BME280;3963;42.658;23.298;2022-09-17T00:11:12;60237.59;;;16.29;100.00
7836;BME280;3963;42.658;23.298;2022-09-17T00:13:40;60307.25;;;16.33;100.00
7836;BME280;3963;42.658;23.298;2022-09-17T00:16:07;60244.78;;;16.40;100.00
7836;BME280;3963;42.658;23.298;2022-09-17T00:18:35;60242.63;;;16.38;100.00
7836;BME280;3963;42.658;23.298;2022-09-17T00:21:06;60247.63;;;16.16;100.00
7836;BME280;3963;42.658;23.298;2022-09-17T00:23:33;60208.97;;;16.17;100.00
7836;BME280;3963;42.658;23.298;2022-09-17T00:26:04;60230.06;;;16.22;100.00
7836;BME280;3963;42.658;23.298;2022-09-17T00:28:32;60245.91;;;16.27;100.00
7836;BME280;3963;42.658;23.298;2022-09-17T00:30:59;60255.34;;;16.28;100.00
7836;BME280;3963;42.658;23.298;2022-09-17T00:33:26;60258.34;;;16.24;100.00
7836;BME280;3963;42.658;23.298;2022-09-17T00:35:58;60219.59;;;16.22;100.00
7836;BME280;3963;42.658;23.298;2022-09-17T00:38:25;60276.09;;;16.23;100.00
7836;BME280;3963;42.658;23.298;2022-09-17T00:40:53;60263.28;;;16.31;100.00
7836;BME280;3963;42.658;23.298;2022-09-17T00:43:39;60268.06;;;16.33;100.00
7836;BME280;3963;42.658;23.298;2022-09-17T00:46:15;60268.06;;;16.33;100.00
7836;BME280;3963;42.658;23.298;2022-09-17T00:48:44;60258.41;;;16.41;100.00
7836;BME280;3963;42.658;23.298;2022-09-17T00:51:16;60296.16;;;16.44;100.00
7836;BME280;3963;42.658;23.298;2022-09-17T00:53:45;60267.88;;;16.42;100.00
7836;BME280;3963;42.658;23.298;2022-09-17T00:56:18;60304.47;;;16.57;100.00
7836;BME280;3963;42.658;23.298;2022-09-17T00:58:49;60277.94;;;16.47;100.00
7836;BME280;3963;42.658;23.298;2022-09-17T01:01:17;60297.16;;;16.43;100.00
7836;BME280;3963;42.658;23.298;2022-09-17T01:03:44;60265.59;;;16.38;100.00
7836;BME280;3963;42.658;23.298;2022-09-17T01:06:20;60264.09;;;16.39;100.00
7836;BME280;3963;42.658;23.298;2022-09-17T01:09:16;60250.19;;;16.45;100.00
7836;BME280;3963;42.658;23.298;2022-09-17T01:12:01;60270.59;;;16.30;100.00
7836;BME280;3963;42.658;23.298;2022-09-17T01:14:53;60269.13;;;16.34;100.00
7836;BME280;3963;42.658;23.298;2022-09-17T01:17:26;60273.72;;;16.31;100.00
7836;BME280;3963;42.658;23.298;2022-09-17T01:20:31;60290.13;;;16.36;100.00
7836;BME280;3963;42.658;23.298;2022-09-17T01:23:28;60262.53;;;16.40;100.00
7836;BME280;3963;42.658;23.298;2022-09-17T01:26:12;60271.94;;;16.39;100.00
7836;BME280;3963;42.658;23.298;2022-09-17T01:28:52;60255.63;;;16.36;100.00
7836;BME280;3963;42.658;23.298;2022-09-17T01:31:35;60269.31;;;16.39;100.00
7836;BME280;3963;42.658;23.298;2022-09-17T01:34:11;60254.81;;;16.28;100.00
7836;BME280;3963;42.658;23.298;2022-09-17T01:36:48;60286.25;;;16.45;100.00
7836;BME280;3963;42.658;23.298;2022-09-17T01:39:27;60336.09;;;16.65;100.00
7836;BME280;3963;42.658;23.298;2022-09-17T01:42:04;60295.78;;;16.64;100.00
7836;BME280;3963;42.658;23.298;2022-09-17T01:44:37;60307.88;;;16.65;100.00
7836;BME280;3963;42.658;23.298;2022-09-17T01:47:11;60329.25;;;16.63;100.00
7836;BME280;3963;42.658;23.298;2022-09-17T01:49:41;60288.31;;;16.44;100.00
7836;BME280;3963;42.658;23.298;2022-09-17T01:52:10;60262.84;;;16.33;100.00
7836;BME280;3963;42.658;23.298;2022-09-17T01:54:41;60266.06;;;16.36;100.00
7836;BME280;3963;42.658;23.298;2022-09-17T01:57:14;60227.59;;;16.27;100.00
7836;BME280;3963;42.658;23.298;2022-09-17T01:59:46;60278.25;;;16.25;100.00
7836;BME280;3963;42.658;23.298;2022-09-17T02:02:22;60261.66;;;16.29;100.00
7836;BME280;3963;42.658;23.298;2022-09-17T02:04:57;60284.28;;;16.33;100.00
7836;BME280;3963;42.658;23.298;2022-09-17T02:07:27;60282.81;;;16.37;100.00
7836;BME280;3963;42.658;23.298;2022-09-17T02:09:59;60307.16;;;16.45;100.00
7836;BME280;3963;42.658;23.298;2022-09-17T02:12:32;60301.84;;;16.42;100.00
7836;BME280;3963;42.658;23.298;2022-09-17T02:15:02;60284.53;;;16.55;100.00
7836;BME280;3963;42.658;23.298;2022-09-17T02:17:36;60274.72;;;16.44;100.00
7836;BME280;3963;42.658;23.298;2022-09-17T02:20:05;60332.03;;;16.53;100.00
7836;BME280;3963;42.658;23.298;2022-09-17T02:22:37;60295.53;;;16.56;100.00
7836;BME280;3963;42.658;23.298;2022-09-17T02:25:09;60331.69;;;16.58;100.00
7836;BME280;3963;42.658;23.298;2022-09-17T02:27:47;60309.69;;;16.57;100.00
7836;BME280;3963;42.658;23.298;2022-09-17T02:30:16;60219.84;;;16.29;100.00
7836;BME280;3963;42.658;23.298;2022-09-17T02:32:45;60258.81;;;16.53;100.00
7836;BME280;3963;42.658;23.298;2022-09-17T02:35:12;60288.94;;;16.47;100.00
7836;BME280;3963;42.658;23.298;2022-09-17T02:37:40;60264.97;;;16.49;100.00
7836;BME280;3963;42.658;23.298;2022-09-17T02:40:09;60316.91;;;16.54;100.00
7836;BME280;3963;42.658;23.298;2022-09-17T02:42:51;60309.94;;;16.50;100.00
7836;BME280;3963;42.658;23.298;2022-09-17T02:45:25;60311.69;;;16.54;100.00
7836;BME280;3963;42.658;23.298;2022-09-17T02:48:07;60285.44;;;16.51;100.00
7836;BME280;3963;42.658;23.298;2022-09-17T02:50:53;60274.34;;;16.48;100.00
7836;BME280;3963;42.658;23.298;2022-09-17T02:53:35;60247.25;;;16.21;100.00
7836;BME280;3963;42.658;23.298;2022-09-17T02:56:11;60272.69;;;16.15;100.00
7836;BME280;3963;42.658;23.298;2022-09-17T02:58:44;60292.47;;;16.29;100.00
7836;BME280;3963;42.658;23.298;2022-09-17T03:01:17;60277.19;;;16.24;100.00
7836;BME280;3963;42.658;23.298;2022-09-17T03:03:48;60259.59;;;16.30;100.00
7836;BME280;3963;42.658;23.298;2022-09-17T03:06:17;60256.91;;;16.27;100.00
7836;BME280;3963;42.658;23.298;2022-09-17T03:08:44;60280.94;;;16.28;100.00
7836;BME280;3963;42.658;23.298;2022-09-17T03:11:11;60258.06;;;16.16;100.00
7836;BME280;3963;42.658;23.298;2022-09-17T03:13:39;60240.88;;;16.17;100.00
7836;BME280;3963;42.658;23.298;2022-09-17T03:16:06;60256.72;;;16.08;100.00
7836;BME280;3963;42.658;23.298;2022-09-17T03:18:33;60263.84;;;16.02;100.00
7836;BME280;3963;42.658;23.298;2022-09-17T03:21:01;60249.44;;;16.08;100.00
7836;BME280;3963;42.658;23.298;2022-09-17T03:23:28;60255.47;;;16.01;100.00
7836;BME280;3963;42.658;23.298;2022-09-17T03:25:55;60269.06;;;16.02;100.00
7836;BME280;3963;42.658;23.298;2022-09-17T03:28:22;60274.38;;;16.04;100.00
7836;BME280;3963;42.658;23.298;2022-09-17T03:30:50;60269.00;;;15.99;100.00
7836;BME280;3963;42.658;23.298;2022-09-17T03:33:17;60270.06;;;16.15;100.00
7836;BME280;3963;42.658;23.298;2022-09-17T03:35:44;60257.72;;;16.21;100.00
7836;BME280;3963;42.658;23.298;2022-09-17T03:38:14;60291.50;;;16.16;100.00
7836;BME280;3963;42.658;23.298;2022-09-17T03:40:41;60243.28;;;16.27;100.00
7836;BME280;3963;42.658;23.298;2022-09-17T03:43:08;60296.16;;;16.44;100.00
7836;BME280;3963;42.658;23.298;2022-09-17T03:45:35;60295.81;;;16.34;100.00
7836;BME280;3963;42.658;23.298;2022-09-17T03:48:02;60269.84;;;16.54;100.00
7836;BME280;3963;42.658;23.298;2022-09-17T03:50:30;60314.34;;;16.71;100.00
7836;BME280;3963;42.658;23.298;2022-09-17T03:52:57;60276.50;;;16.65;100.00
7836;BME280;3963;42.658;23.298;2022-09-17T03:55:25;60334.94;;;16.61;100.00
7836;BME280;3963;42.658;23.298;2022-09-17T03:57:52;60284.00;;;16.55;100.00
7836;BME280;3963;42.658;23.298;2022-09-17T04:00:20;60289.56;;;16.50;100.00
7836;BME280;3963;42.658;23.298;2022-09-17T04:02:48;60277.47;;;16.64;100.00
7836;BME280;3963;42.658;23.298;2022-09-17T04:05:15;60300.56;;;16.66;100.00
7836;BME280;3963;42.658;23.298;2022-09-17T04:07:41;60326.81;;;16.68;100.00
7836;BME280;3963;42.658;23.298;2022-09-17T04:10:08;60322.03;;;16.66;100.00
7836;BME280;3963;42.658;23.298;2022-09-17T04:12:36;60333.56;;;16.67;100.00
7836;BME280;3963;42.658;23.298;2022-09-17T04:15:04;60319.44;;;16.66;100.00
7836;BME280;3963;42.658;23.298;2022-09-17T04:17:31;60303.19;;;16.66;100.00
7836;BME280;3963;42.658;23.298;2022-09-17T04:19:58;60317.88;;;16.67;100.00
7836;BME280;3963;42.658;23.298;2022-09-17T04:22:25;60357.09;;;16.82;100.00
7836;BME280;3963;42.658;23.298;2022-09-17T04:24:52;60357.81;;;16.87;100.00
7836;BME280;3963;42.658;23.298;2022-09-17T04:27:19;60362.88;;;16.82;100.00
7836;BME280;3963;42.658;23.298;2022-09-17T04:29:47;60343.47;;;16.81;100.00
7836;BME280;3963;42.658;23.298;2022-09-17T04:32:14;60339.88;;;16.83;100.00
7836;BME280;3963;42.658;23.298;2022-09-17T04:34:41;60360.44;;;16.87;100.00
7836;BME280;3963;42.658;23.298;2022-09-17T04:37:08;60307.78;;;16.63;100.00
7836;BME280;3963;42.658;23.298;2022-09-17T04:39:35;60311.84;;;16.59;100.00
7836;BME280;3963;42.658;23.298;2022-09-17T04:42:03;60322.16;;;16.54;100.00
7836;BME280;3963;42.658;23.298;2022-09-17T04:44:30;60355.69;;;16.56;100.00
7836;BME280;3963;42.658;23.298;2022-09-17T04:46:58;60315.44;;;16.72;100.00
7836;BME280;3963;42.658;23.298;2022-09-17T04:49:25;60369.38;;;16.74;100.00
7836;BME280;3963;42.658;23.298;2022-09-17T04:51:54;60319.94;;;16.67;100.00
7836;BME280;3963;42.658;23.298;2022-09-17T04:54:21;60317.47;;;16.54;100.00
7836;BME280;3963;42.658;23.298;2022-09-17T04:56:48;60328.88;;;16.53;100.00
7836;BME280;3963;42.658;23.298;2022-09-17T04:59:15;60350.44;;;16.56;100.00
7836;BME280;3963;42.658;23.298;2022-09-17T05:01:42;60337.44;;;16.73;100.00
7836;BME280;3963;42.658;23.298;2022-09-17T05:04:11;60339.41;;;16.85;100.00
7836;BME280;3963;42.658;23.298;2022-09-17T05:06:37;60375.03;;;17.01;100.00
7836;BME280;3963;42.658;23.298;2022-09-17T05:09:04;60379.69;;;17.15;100.00
7836;BME280;3963;42.658;23.298;2022-09-17T05:11:31;60391.06;;;17.26;100.00
7836;BME280;3963;42.658;23.298;2022-09-17T05:13:58;60402.88;;;17.34;100.00
7836;BME280;3963;42.658;23.298;2022-09-17T05:16:25;60431.47;;;17.44;100.00
7836;BME280;3963;42.658;23.298;2022-09-17T05:18:52;60434.81;;;17.49;100.00
7836;BME280;3963;42.658;23.298;2022-09-17T05:21:20;60448.25;;;17.59;100.00
7836;BME280;3963;42.658;23.298;2022-09-17T05:23:47;60429.56;;;17.64;100.00
7836;BME280;3963;42.658;23.298;2022-09-17T05:26:14;60470.19;;;17.73;100.00
7836;BME280;3963;42.658;23.298;2022-09-17T05:28:41;60508.25;;;18.13;100.00
7836;BME280;3963;42.658;23.298;2022-09-17T05:31:08;60566.56;;;18.31;100.00
7836;BME280;3963;42.658;23.298;2022-09-17T05:33:35;60557.84;;;18.37;100.00
7836;BME280;3963;42.658;23.298;2022-09-17T05:36:02;60540.75;;;18.43;100.00
7836;BME280;3963;42.658;23.298;2022-09-17T05:38:30;60556.56;;;18.46;100.00
7836;BME280;3963;42.658;23.298;2022-09-17T05:40:57;60580.09;;;18.43;100.00
7836;BME280;3963;42.658;23.298;2022-09-17T05:43:24;60553.88;;;18.43;100.00
7836;BME280;3963;42.658;23.298;2022-09-17T05:45:51;60569.69;;;18.46;100.00
7836;BME280;3963;42.658;23.298;2022-09-17T05:48:18;60582.00;;;18.52;100.00
7836;BME280;3963;42.658;23.298;2022-09-17T05:50:45;60541.03;;;18.51;100.00
7836;BME280;3963;42.658;23.298;2022-09-17T05:53:13;60537.88;;;18.36;100.00
7836;BME280;3963;42.658;23.298;2022-09-17T05:55:42;60557.41;;;18.54;100.00
7836;BME280;3963;42.658;23.298;2022-09-17T05:58:09;60586.63;;;18.49;100.00
7836;BME280;3963;42.658;23.298;2022-09-17T06:00:37;60518.28;;;18.30;100.00
7836;BME280;3963;42.658;23.298;2022-09-17T06:03:04;60565.31;;;18.24;100.00
7836;BME280;3963;42.658;23.298;2022-09-17T06:05:31;60558.16;;;18.30;100.00
7836;BME280;3963;42.658;23.298;2022-09-17T06:07:58;60526.88;;;18.20;100.00
7836;BME280;3963;42.658;23.298;2022-09-17T06:10:24;60529.66;;;18.25;100.00
7836;BME280;3963;42.658;23.298;2022-09-17T06:12:56;60532.47;;;18.16;100.00
7836;BME280;3963;42.658;23.298;2022-09-17T06:15:23;60525.63;;;18.14;100.00
7836;BME280;3963;42.658;23.298;2022-09-17T06:17:50;60521.28;;;18.10;100.00
7836;BME280;3963;42.658;23.298;2022-09-17T06:20:17;60502.50;;;18.12;100.00
7836;BME280;3963;42.658;23.298;2022-09-17T06:22:44;60508.28;;;17.98;100.00
7836;BME280;3963;42.658;23.298;2022-09-17T06:25:11;60508.94;;;17.87;100.00
7836;BME280;3963;42.658;23.298;2022-09-17T06:27:38;60502.25;;;17.76;100.00
7836;BME280;3963;42.658;23.298;2022-09-17T06:30:07;60464.88;;;17.70;100.00
7836;BME280;3963;42.658;23.298;2022-09-17T06:32:34;60495.13;;;17.81;100.00
7836;BME280;3963;42.658;23.298;2022-09-17T06:35:00;60485.00;;;17.77;100.00
7836;BME280;3963;42.658;23.298;2022-09-17T06:37:29;60474.00;;;17.76;100.00
7836;BME280;3963;42.658;23.298;2022-09-17T06:39:57;60481.94;;;17.79;100.00
7836;BME280;3963;42.658;23.298;2022-09-17T06:42:24;60456.84;;;17.65;100.00
7836;BME280;3963;42.658;23.298;2022-09-17T06:44:52;60499.41;;;17.68;100.00
7836;BME280;3963;42.658;23.298;2022-09-17T06:47:23;60477.59;;;17.75;100.00
7836;BME280;3963;42.658;23.298;2022-09-17T06:49:50;60467.03;;;17.72;100.00
7836;BME280;3963;42.658;23.298;2022-09-17T06:52:17;60488.63;;;17.75;100.00
7836;BME280;3963;42.658;23.298;2022-09-17T06:54:44;60519.50;;;17.89;100.00
7836;BME280;3963;42.658;23.298;2022-09-17T06:57:11;60528.19;;;17.97;100.00
7836;BME280;3963;42.658;23.298;2022-09-17T06:59:37;60515.97;;;18.08;100.00
7836;BME280;3963;42.658;23.298;2022-09-17T07:02:05;60528.25;;;18.14;100.00
7836;BME280;3963;42.658;23.298;2022-09-17T07:04:33;60518.63;;;18.25;100.00
7836;BME280;3963;42.658;23.298;2022-09-17T07:07:00;60562.78;;;18.27;100.00
7836;BME280;3963;42.658;23.298;2022-09-17T07:09:27;60559.19;;;18.46;100.00
7836;BME280;3963;42.658;23.298;2022-09-17T07:11:54;60544.75;;;18.37;100.00
7836;BME280;3963;42.658;23.298;2022-09-17T07:14:21;60581.47;;;18.52;100.00
7836;BME280;3963;42.658;23.298;2022-09-17T07:16:49;60585.63;;;18.65;100.00
7836;BME280;3963;42.658;23.298;2022-09-17T07:19:16;60585.00;;;18.62;100.00
7836;BME280;3963;42.658;23.298;2022-09-17T07:21:47;60625.59;;;18.68;100.00
7836;BME280;3963;42.658;23.298;2022-09-17T07:24:13;60630.56;;;18.90;100.00
7836;BME280;3963;42.658;23.298;2022-09-17T07:26:40;60627.00;;;18.94;100.00
7836;BME280;3963;42.658;23.298;2022-09-17T07:29:07;60690.63;;;19.12;100.00
7836;BME280;3963;42.658;23.298;2022-09-17T07:31:34;60672.72;;;19.10;100.00
7836;BME280;3963;42.658;23.298;2022-09-17T07:34:01;60661.72;;;19.26;100.00
7836;BME280;3963;42.658;23.298;2022-09-17T07:36:28;60688.72;;;19.32;100.00
7836;BME280;3963;42.658;23.298;2022-09-17T07:38:56;60740.78;;;19.49;100.00
7836;BME280;3963;42.658;23.298;2022-09-17T07:41:23;60738.25;;;19.51;100.00
7836;BME280;3963;42.658;23.298;2022-09-17T07:43:51;60717.31;;;19.54;100.00
7836;BME280;3963;42.658;23.298;2022-09-17T07:46:20;60720.13;;;19.59;100.00
7836;BME280;3963;42.658;23.298;2022-09-17T07:48:48;60748.28;;;19.68;100.00
7836;BME280;3963;42.658;23.298;2022-09-17T07:51:15;60831.38;;;19.99;100.00
7836;BME280;3963;42.658;23.298;2022-09-17T07:53:43;60776.03;;;20.11;100.00
7836;BME280;3963;42.658;23.298;2022-09-17T07:56:12;60860.84;;;20.28;100.00
7836;BME280;3963;42.658;23.298;2022-09-17T07:58:39;60845.06;;;20.28;100.00
7836;BME280;3963;42.658;23.298;2022-09-17T08:01:07;60872.19;;;20.36;100.00
7836;BME280;3963;42.658;23.298;2022-09-17T08:03:35;60835.69;;;20.47;100.00
7836;BME280;3963;42.658;23.298;2022-09-17T08:06:03;60889.94;;;20.63;100.00
7836;BME280;3963;42.658;23.298;2022-09-17T08:08:31;60907.16;;;20.74;100.00
7836;BME280;3963;42.658;23.298;2022-09-17T08:11:01;60896.53;;;20.86;100.00
7836;BME280;3963;42.658;23.298;2022-09-17T08:13:29;60948.63;;;21.00;100.00
7836;BME280;3963;42.658;23.298;2022-09-17T08:15:57;60960.16;;;20.98;100.00
7836;BME280;3963;42.658;23.298;2022-09-17T08:18:25;60934.66;;;20.92;100.00
7836;BME280;3963;42.658;23.298;2022-09-17T08:20:55;60931.38;;;20.89;100.00
7836;BME280;3963;42.658;23.298;2022-09-17T08:23:22;60977.69;;;21.17;100.00
7836;BME280;3963;42.658;23.298;2022-09-17T08:25:51;61048.63;;;21.71;100.00
7836;BME280;3963;42.658;23.298;2022-09-17T08:28:20;61125.03;;;22.29;100.00
7836;BME280;3963;42.658;23.298;2022-09-17T08:30:48;61218.56;;;23.06;100.00
7836;BME280;3963;42.658;23.298;2022-09-17T08:33:16;61294.91;;;23.42;100.00
7836;BME280;3963;42.658;23.298;2022-09-17T08:35:49;61265.91;;;23.30;100.00
7836;BME280;3963;42.658;23.298;2022-09-17T08:38:16;61304.66;;;23.34;100.00
7836;BME280;3963;42.658;23.298;2022-09-17T08:40:50;61256.81;;;23.12;100.00
7836;BME280;3963;42.658;23.298;2022-09-17T08:43:22;61249.75;;;22.91;100.00
7836;BME280;3963;42.658;23.298;2022-09-17T08:45:53;61245.34;;;23.16;100.00
7836;BME280;3963;42.658;23.298;2022-09-17T08:48:21;61327.56;;;23.53;100.00
7836;BME280;3963;42.658;23.298;2022-09-17T08:50:49;61331.50;;;23.91;100.00
7836;BME280;3963;42.658;23.298;2022-09-17T08:53:28;61403.97;;;24.18;100.00
7836;BME280;3963;42.658;23.298;2022-09-17T08:56:05;61393.19;;;23.99;100.00
7836;BME280;3963;42.658;23.298;2022-09-17T08:58:41;61329.16;;;23.69;100.00
7836;BME280;3963;42.658;23.298;2022-09-17T09:01:21;61278.88;;;23.23;100.00
7836;BME280;3963;42.658;23.298;2022-09-17T09:03:59;61221.78;;;22.92;100.00
7836;BME280;3963;42.658;23.298;2022-09-17T09:06:33;61114.53;;;22.46;100.00
7836;BME280;3963;42.658;23.298;2022-09-17T09:09:04;61124.69;;;22.34;100.00
7836;BME280;3963;42.658;23.298;2022-09-17T09:11:33;61137.25;;;22.16;100.00
7836;BME280;3963;42.658;23.298;2022-09-17T09:14:12;61010.78;;;21.60;100.00
7836;BME280;3963;42.658;23.298;2022-09-17T09:16:43;61018.19;;;21.45;100.00
7836;BME280;3963;42.658;23.298;2022-09-17T09:19:18;60970.06;;;21.10;100.00
7836;BME280;3963;42.658;23.298;2022-09-17T09:21:56;60921.22;;;20.84;100.00
7836;BME280;3963;42.658;23.298;2022-09-17T09:24:29;60932.13;;;20.65;100.00
7836;BME280;3963;42.658;23.298;2022-09-17T09:27:02;60837.78;;;20.31;100.00
7836;BME280;3963;42.658;23.298;2022-09-17T09:29:41;60832.19;;;20.07;100.00
7836;BME280;3963;42.658;23.298;2022-09-17T09:32:20;60780.88;;;19.83;100.00
7836;BME280;3963;42.658;23.298;2022-09-17T09:34:52;60733.50;;;19.66;100.00
7836;BME280;3963;42.658;23.298;2022-09-17T09:37:23;60733.88;;;19.62;100.00
7836;BME280;3963;42.658;23.298;2022-09-17T09:39:54;60742.50;;;19.53;100.00
7836;BME280;3963;42.658;23.298;2022-09-17T09:42:26;60717.41;;;19.42;100.00
7836;BME280;3963;42.658;23.298;2022-09-17T09:44:57;60686.91;;;19.25;100.00
7836;BME280;3963;42.658;23.298;2022-09-17T09:47:38;60684.84;;;19.11;100.00
7836;BME280;3963;42.658;23.298;2022-09-17T09:50:23;60694.34;;;18.98;100.00
7836;BME280;3963;42.658;23.298;2022-09-17T09:53:02;60677.59;;;19.00;100.00
7836;BME280;3963;42.658;23.298;2022-09-17T09:58:30;60625.44;;;18.63;100.00
7836;BME280;3963;42.658;23.298;2022-09-17T10:00:59;60639.72;;;18.38;100.00
7836;BME280;3963;42.658;23.298;2022-09-17T10:03:30;60569.28;;;18.33;100.00
7836;BME280;3963;42.658;23.298;2022-09-17T10:05:59;60566.94;;;18.26;100.00
7836;BME280;3963;42.658;23.298;2022-09-17T10:08:27;60574.44;;;18.16;100.00
7836;BME280;3963;42.658;23.298;2022-09-17T10:10:56;60589.91;;;18.08;100.00
7836;BME280;3963;42.658;23.298;2022-09-17T10:13:24;60593.88;;;18.02;100.00
7836;BME280;3963;42.658;23.298;2022-09-17T10:15:51;60608.25;;;18.08;100.00
7836;BME280;3963;42.658;23.298;2022-09-17T10:18:19;60636.28;;;18.00;100.00
7836;BME280;3963;42.658;23.298;2022-09-17T10:20:53;60598.66;;;17.90;100.00
7836;BME280;3963;42.658;23.298;2022-09-17T10:23:21;60623.81;;;17.89;100.00
7836;BME280;3963;42.658;23.298;2022-09-17T10:25:48;60624.22;;;17.72;100.00
7836;BME280;3963;42.658;23.298;2022-09-17T10:28:32;60643.56;;;17.71;100.00
7836;BME280;3963;42.658;23.298;2022-09-17T10:31:00;60652.88;;;17.67;100.00
7836;BME280;3963;42.658;23.298;2022-09-17T10:33:29;60622.31;;;17.63;100.00
7836;BME280;3963;42.658;23.298;2022-09-17T10:36:00;60665.41;;;17.66;100.00
7836;BME280;3963;42.658;23.298;2022-09-17T10:38:30;60547.06;;;17.68;100.00
7836;BME280;3963;42.658;23.298;2022-09-17T10:41:15;60546.00;;;17.82;100.00
7836;BME280;3963;42.658;23.298;2022-09-17T10:43:42;60545.06;;;17.86;100.00
7836;BME280;3963;42.658;23.298;2022-09-17T10:46:15;60592.53;;;17.94;100.00
7836;BME280;3963;42.658;23.298;2022-09-17T10:48:48;60607.53;;;18.03;100.00
7836;BME280;3963;42.658;23.298;2022-09-17T10:51:23;60573.91;;;18.01;100.00
7836;BME280;3963;42.658;23.298;2022-09-17T10:54:14;60563.31;;;18.13;100.00
7836;BME280;3963;42.658;23.298;2022-09-17T10:56:47;60583.03;;;18.07;100.00
7836;BME280;3963;42.658;23.298;2022-09-17T10:59:42;60533.41;;;18.12;100.00
7836;BME280;3963;42.658;23.298;2022-09-17T11:02:30;60576.34;;;18.10;100.00
7836;BME280;3963;42.658;23.298;2022-09-17T11:05:18;60580.50;;;18.24;100.00
7836;BME280;3963;42.658;23.298;2022-09-17T11:07:55;60601.72;;;18.32;100.00
7836;BME280;3963;42.658;23.298;2022-09-17T11:10:29;60621.25;;;18.35;100.00
7836;BME280;3963;42.658;23.298;2022-09-17T11:13:09;60624.69;;;18.43;100.00
7836;BME280;3963;42.658;23.298;2022-09-17T11:15:47;60587.25;;;18.38;100.00
7836;BME280;3963;42.658;23.298;2022-09-17T11:18:35;60599.50;;;18.12;100.00
7836;BME280;3963;42.658;23.298;2022-09-17T11:21:33;60648.13;;;18.67;100.00
7836;BME280;3963;42.658;23.298;2022-09-17T11:24:37;60656.09;;;18.70;100.00
7836;BME280;3963;42.658;23.298;2022-09-17T11:27:16;60645.31;;;18.77;100.00
7836;BME280;3963;42.658;23.298;2022-09-17T11:30:01;60628.13;;;18.81;100.00
7836;BME280;3963;42.658;23.298;2022-09-17T11:32:42;60663.78;;;18.79;100.00
7836;BME280;3963;42.658;23.298;2022-09-17T11:35:15;60618.63;;;18.79;100.00
7836;BME280;3963;42.658;23.298;2022-09-17T11:37:49;60612.09;;;18.73;100.00
7836;BME280;3963;42.658;23.298;2022-09-17T11:40:25;60595.72;;;18.70;100.00
7836;BME280;3963;42.658;23.298;2022-09-17T11:43:02;60595.56;;;18.65;100.00
7836;BME280;3963;42.658;23.298;2022-09-17T11:45:33;60635.56;;;18.68;100.00
7836;BME280;3963;42.658;23.298;2022-09-17T11:48:07;60601.72;;;18.61;100.00
7836;BME280;3963;42.658;23.298;2022-09-17T11:50:39;60608.06;;;18.47;100.00
7836;BME280;3963;42.658;23.298;2022-09-17T11:53:16;60578.47;;;18.42;100.00
7836;BME280;3963;42.658;23.298;2022-09-17T11:55:52;60621.97;;;18.41;100.00
7836;BME280;3963;42.658;23.298;2022-09-17T11:58:27;60585.63;;;18.36;100.00
7836;BME280;3963;42.658;23.298;2022-09-17T12:01:00;60614.41;;;18.34;100.00
7836;BME280;3963;42.658;23.298;2022-09-17T12:03:31;60580.03;;;18.26;100.00
7836;BME280;3963;42.658;23.298;2022-09-17T12:06:05;60588.69;;;18.34;100.00
7836;BME280;3963;42.658;23.298;2022-09-17T12:08:39;60588.19;;;18.34;100.00
7836;BME280;3963;42.658;23.298;2022-09-17T12:11:13;60568.81;;;18.35;100.00
7836;BME280;3963;42.658;23.298;2022-09-17T12:13:45;60607.16;;;18.37;100.00
7836;BME280;3963;42.658;23.298;2022-09-17T12:16:18;60622.69;;;18.46;100.00
7836;BME280;3963;42.658;23.298;2022-09-17T12:18:55;60624.34;;;18.48;100.00
7836;BME280;3963;42.658;23.298;2022-09-17T12:21:28;60625.25;;;18.58;100.00
7836;BME280;3963;42.658;23.298;2022-09-17T12:23:58;60543.28;;;18.55;100.00
7836;BME280;3963;42.658;23.298;2022-09-17T12:29:40;60612.41;;;18.66;100.00
7836;BME280;3963;42.658;23.298;2022-09-17T12:32:22;60686.09;;;19.17;100.00
7836;BME280;3963;42.658;23.298;2022-09-17T12:35:01;60671.63;;;19.09;100.00
7836;BME280;3963;42.658;23.298;2022-09-17T12:37:36;60655.16;;;18.89;100.00
7836;BME280;3963;42.658;23.298;2022-09-17T12:40:15;60638.34;;;18.73;100.00
7836;BME280;3963;42.658;23.298;2022-09-17T12:42:57;60594.94;;;18.47;100.00
7836;BME280;3963;42.658;23.298;2022-09-17T12:45:48;60599.47;;;18.42;100.00
7836;BME280;3963;42.658;23.298;2022-09-17T12:48:39;60553.81;;;18.26;100.00
7836;BME280;3963;42.658;23.298;2022-09-17T12:51:20;60592.69;;;18.28;100.00
7836;BME280;3963;42.658;23.298;2022-09-17T12:53:59;60540.78;;;18.29;100.00
7836;BME280;3963;42.658;23.298;2022-09-17T12:56:45;60549.84;;;18.17;100.00
7836;BME280;3963;42.658;23.298;2022-09-17T12:59:15;60593.75;;;18.44;100.00
7836;BME280;3963;42.658;23.298;2022-09-17T13:01:49;60549.81;;;18.32;100.00
7836;BME280;3963;42.658;23.298;2022-09-17T13:04:51;60572.06;;;18.38;100.00
7836;BME280;3963;42.658;23.298;2022-09-17T13:10:40;60577.69;;;18.34;100.00
7836;BME280;3963;42.658;23.298;2022-09-17T13:13:25;60603.19;;;18.57;100.00
7836;BME280;3963;42.658;23.298;2022-09-17T13:15:59;60596.47;;;18.61;100.00
7836;BME280;3963;42.658;23.298;2022-09-17T13:18:40;60629.56;;;18.77;100.00
7836;BME280;3963;42.658;23.298;2022-09-17T13:21:14;60634.78;;;18.92;100.00
7836;BME280;3963;42.658;23.298;2022-09-17T13:23:47;60623.75;;;18.91;100.00
7836;BME280;3963;42.658;23.298;2022-09-17T13:26:17;60655.47;;;18.82;100.00
7836;BME280;3963;42.658;23.298;2022-09-17T13:28:47;60681.78;;;18.99;100.00
7836;BME280;3963;42.658;23.298;2022-09-17T13:31:19;60642.94;;;18.85;100.00
7836;BME280;3963;42.658;23.298;2022-09-17T13:33:56;60696.41;;;19.27;100.00